Time;durP1;ratioP1;P1;durP2;ratioP2;P2;SDS_P1;SDS_P2;PMS_P1;PMS_P2;Temp;Humidity;BMP_temperature;BMP_pressure;BME280_temperature;BME280_humidity;BME280_pressure;Samples;Min_cycle;Max_cycle;Signal;HPM_P1;HPM_P2
2023/10/07 00:00:31;;;;;;;5.30;2.93;;;17.30;99.90;;;;;;5041369;28;20725;-54
2023/10/07 00:02:59;;;;;;;5.47;2.43;;;17.30;99.90;;;;;;5016666;28;20207;-61
2023/10/07 00:05:40;;;;;;;5.43;3.10;;;17.40;99.90;;;;;;5037192;28;20198;-58
2023/10/07 00:08:08;;;;;;;5.23;3.83;;;17.40;99.90;;;;;;5033432;28;20306;-58
2023/10/07 00:10:37;;;;;;;4.67;2.87;;;17.40;99.90;;;;;;5017520;28;20210;-55
2023/10/07 00:13:04;;;;;;;4.47;2.83;;;17.40;99.90;;;;;;5035419;28;20241;-54
2023/10/07 00:15:30;;;;;;;4.73;3.20;;;17.50;99.90;;;;;;5034749;28;20264;-53
2023/10/07 00:18:34;;;;;;;3.40;3.10;;;17.40;99.90;;;;;;5015738;28;20584;-54
2023/10/07 00:20:54;;;;;;;9.83;3.80;;;17.40;99.90;;;;;;5031247;28;20622;-54
2023/10/07 00:23:22;;;;;;;5.50;3.00;;;17.40;99.90;;;;;;5031349;28;20219;-54
2023/10/07 00:25:51;;;;;;;4.87;3.23;;;17.40;99.90;;;;;;5041344;28;20637;-54
2023/10/07 00:28:32;;;;;;;9.83;3.20;;;17.40;99.90;;;;;;5034889;28;20841;-54
2023/10/07 00:31:02;;;;;;;5.83;3.27;;;17.50;99.90;;;;;;5014403;28;20206;-55
2023/10/07 00:33:46;;;;;;;8.53;3.47;;;17.40;99.90;;;;;;5034955;28;20964;-54
2023/10/07 00:36:14;;;;;;;5.83;3.10;;;17.40;99.90;;;;;;5036369;28;20702;-54
2023/10/07 00:38:41;;;;;;;3.90;2.37;;;17.40;99.90;;;;;;5037131;28;20199;-54
2023/10/07 00:41:11;;;;;;;7.67;3.60;;;17.40;99.90;;;;;;5038295;28;20660;-54
2023/10/07 00:43:37;;;;;;;6.90;3.17;;;17.40;99.90;;;;;;5031597;28;20223;-55
2023/10/07 00:46:21;;;;;;;4.07;3.07;;;17.40;99.90;;;;;;5031037;28;20222;-54
2023/10/07 00:51:17;;;;;;;5.37;2.60;;;17.50;99.90;;;;;;5040399;28;20252;-53
2023/10/07 00:53:46;;;;;;;5.80;3.63;;;17.50;99.90;;;;;;5034380;28;20284;-54
2023/10/07 00:56:14;;;;;;;9.57;3.07;;;17.40;99.90;;;;;;5034702;28;20249;-54
2023/10/07 00:58:41;;;;;;;7.17;3.33;;;17.40;99.90;;;;;;5033817;28;20222;-54
2023/10/07 01:01:09;;;;;;;4.57;2.80;;;17.50;99.90;;;;;;5032850;28;20202;-53
2023/10/07 01:03:47;;;;;;;6.50;3.20;;;17.40;99.90;;;;;;5032848;28;20280;-54
2023/10/07 01:06:26;;;;;;;5.43;3.10;;;17.50;99.90;;;;;;5038787;28;20225;-53
2023/10/07 01:09:07;;;;;;;5.70;3.20;;;17.40;99.90;;;;;;5034196;28;20531;-53
2023/10/07 01:11:36;;;;;;;8.17;3.50;;;17.40;99.90;;;;;;5033409;28;20649;-53
2023/10/07 01:14:05;;;;;;;6.40;3.47;;;17.40;99.90;;;;;;5034617;28;20261;-52
2023/10/07 01:22:11;;;;;;;6.07;2.90;;;17.40;99.90;;;;;;5035157;28;20242;-55
2023/10/07 01:27:08;;;;;;;4.60;3.47;;;17.40;99.90;;;;;;5038425;28;20206;-54
2023/10/07 01:29:34;;;;;;;9.50;3.80;;;17.50;99.90;;;;;;5017305;28;20310;-54
2023/10/07 01:32:00;;;;;;;3.40;2.57;;;17.50;99.90;;;;;;5036316;28;20852;-54
2023/10/07 01:34:30;;;;;;;6.43;3.67;;;17.40;99.90;;;;;;5036609;28;20194;-54
2023/10/07 01:37:00;;;;;;;4.60;2.80;;;17.40;99.90;;;;;;5037988;28;20186;-54
2023/10/07 01:39:27;;;;;;;6.27;3.50;;;17.50;99.90;;;;;;5038518;28;20229;-54
2023/10/07 01:41:53;;;;;;;5.17;2.43;;;17.50;99.90;;;;;;5036498;28;20211;-54
2023/10/07 01:44:24;;;;;;;7.53;3.23;;;17.40;99.90;;;;;;5030481;28;20818;-54
2023/10/07 01:46:55;;;;;;;7.27;3.30;;;17.30;99.90;;;;;;5032895;28;20206;-54
2023/10/07 01:49:22;;;;;;;10.63;4.07;;;17.40;99.90;;;;;;5034473;28;20306;-54
2023/10/07 01:51:51;;;;;;;6.00;3.00;;;17.40;99.90;;;;;;5037618;28;20218;-54
2023/10/07 01:54:19;;;;;;;5.97;2.70;;;17.50;99.90;;;;;;5032168;28;20705;-62
2023/10/07 01:56:47;;;;;;;8.27;3.20;;;17.30;99.90;;;;;;5032238;28;20699;-58
2023/10/07 02:01:42;;;;;;;6.07;3.20;;;17.50;99.90;;;;;;5037401;28;20210;-54
2023/10/07 02:04:16;;;;;;;6.80;3.40;;;17.50;99.90;;;;;;5030231;28;20704;-54
2023/10/07 02:06:51;;;;;;;4.50;2.77;;;17.30;99.90;;;;;;5031757;28;20210;-57
2023/10/07 02:09:24;;;;;;;6.03;3.00;;;17.40;99.90;;;;;;5029968;28;20191;-53
2023/10/07 02:11:54;;;;;;;9.83;3.30;;;17.50;99.90;;;;;;5033913;28;20789;-54
2023/10/07 02:14:24;;;;;;;8.87;3.60;;;17.40;99.90;;;;;;5028706;28;20198;-54
2023/10/07 02:16:56;;;;;;;8.07;3.70;;;17.40;99.90;;;;;;5035358;28;20206;-54
2023/10/07 02:19:32;;;;;;;4.10;3.40;;;17.40;99.90;;;;;;5035591;28;20202;-53
2023/10/07 02:22:03;;;;;;;5.53;3.37;;;17.40;99.90;;;;;;5031744;28;20277;-54
2023/10/07 02:24:30;;;;;;;4.13;3.50;;;17.40;99.90;;;;;;5036536;28;20220;-54
2023/10/07 02:27:04;;;;;;;3.87;3.13;;;17.40;99.90;;;;;;5034613;28;20200;-54
2023/10/07 02:29:30;;;;;;;6.73;3.33;;;17.30;99.90;;;;;;5037629;28;20207;-54
2023/10/07 02:32:15;;;;;;;6.37;3.37;;;17.30;99.90;;;;;;5030749;28;20209;-54
2023/10/07 02:34:51;;;;;;;4.73;3.10;;;17.30;99.90;;;;;;5013269;28;20322;-54
2023/10/07 02:37:31;;;;;;;5.07;3.00;;;17.40;99.90;;;;;;5031481;28;20301;-54
2023/10/07 02:40:03;;;;;;;10.73;3.67;;;17.30;99.90;;;;;;5033257;28;20629;-53
2023/10/07 02:42:28;;;;;;;8.87;4.20;;;17.30;99.90;;;;;;5031057;28;20192;-54
2023/10/07 02:45:39;;;;;;;6.50;3.40;;;17.40;99.90;;;;;;5031286;28;20449;-54
2023/10/07 02:47:53;;;;;;;6.33;4.00;;;17.30;99.90;;;;;;5032240;28;20229;-54
2023/10/07 02:50:20;;;;;;;6.60;2.97;;;17.30;99.90;;;;;;5015181;28;20198;-54
2023/10/07 02:52:49;;;;;;;10.87;3.97;;;17.30;99.90;;;;;;5032884;28;20203;-54
2023/10/07 02:57:47;;;;;;;8.00;4.13;;;17.20;99.90;;;;;;5031466;28;20204;-54
2023/10/07 03:00:30;;;;;;;6.77;3.57;;;17.20;99.90;;;;;;5013558;28;20202;-54
2023/10/07 03:05:49;;;;;;;7.67;3.93;;;17.30;99.90;;;;;;5032594;28;20202;-54
2023/10/07 03:08:20;;;;;;;8.37;3.53;;;17.30;99.90;;;;;;5036825;28;20252;-54
2023/10/07 03:11:03;;;;;;;8.40;4.60;;;17.30;99.90;;;;;;5041414;28;20190;-54
2023/10/07 03:13:37;;;;;;;6.00;3.53;;;17.30;99.90;;;;;;5039168;28;20279;-54
2023/10/07 03:22:15;;;;;;;9.17;4.90;;;17.20;99.90;;;;;;5036711;28;20205;-52
2023/10/07 03:24:25;;;;;;;8.43;3.80;;;17.20;99.90;;;;;;5016091;28;20253;-53
2023/10/07 03:26:54;;;;;;;7.00;4.00;;;17.20;99.90;;;;;;5034767;28;20208;-52
2023/10/07 03:29:31;;;;;;;6.20;3.50;;;17.10;99.90;;;;;;5016118;28;20226;-53
2023/10/07 03:31:59;;;;;;;8.23;3.93;;;17.10;99.90;;;;;;5035646;28;20636;-53
2023/10/07 03:34:25;;;;;;;3.63;3.23;;;17.10;99.90;;;;;;5012512;28;20195;-53
2023/10/07 03:42:18;;;;;;;4.97;3.43;;;17.30;99.90;;;;;;5036062;28;20225;-53
2023/10/07 03:44:46;;;;;;;4.53;3.17;;;17.30;99.90;;;;;;5030122;28;20804;-53
2023/10/07 03:47:13;;;;;;;5.87;3.77;;;17.30;99.90;;;;;;5017170;28;20191;-53
2023/10/07 03:49:40;;;;;;;6.80;3.33;;;17.20;99.90;;;;;;5034158;28;20206;-54
2023/10/07 03:52:19;;;;;;;8.67;3.40;;;17.20;99.90;;;;;;5017842;28;20237;-53
2023/10/07 03:54:46;;;;;;;4.90;3.57;;;17.30;99.90;;;;;;5033664;28;20206;-62
2023/10/07 03:57:11;;;;;;;12.33;4.20;;;17.30;99.90;;;;;;5019974;28;20203;-58
2023/10/07 03:59:38;;;;;;;6.40;3.47;;;17.30;99.90;;;;;;5030223;28;20222;-54
2023/10/07 04:04:55;;;;;;;5.33;3.10;;;17.30;99.90;;;;;;5031923;28;20245;-54
2023/10/07 04:07:21;;;;;;;4.80;3.63;;;17.40;99.90;;;;;;5033102;28;20206;-57
2023/10/07 04:09:46;;;;;;;7.57;3.40;;;17.40;99.90;;;;;;5032822;28;20202;-54
2023/10/07 04:12:14;;;;;;;6.90;4.33;;;17.30;99.90;;;;;;5039569;28;20203;-54
2023/10/07 04:14:39;;;;;;;6.23;3.10;;;17.40;99.90;;;;;;5037094;28;20310;-58
2023/10/07 04:17:11;;;;;;;7.60;3.40;;;17.40;99.90;;;;;;5032635;28;20277;-53
2023/10/07 04:19:53;;;;;;;8.97;3.53;;;17.40;99.90;;;;;;5032785;28;20207;-57
2023/10/07 04:22:18;;;;;;;5.57;3.40;;;17.40;99.90;;;;;;5032231;28;20199;-56
2023/10/07 04:24:44;;;;;;;5.27;3.13;;;17.40;99.90;;;;;;5035595;28;20280;-55
2023/10/07 04:27:18;;;;;;;7.10;3.47;;;17.30;99.90;;;;;;5035167;28;20203;-58
2023/10/07 04:29:45;;;;;;;4.53;3.60;;;17.30;99.90;;;;;;5030282;28;20277;-58
2023/10/07 04:32:12;;;;;;;4.93;3.70;;;17.40;99.90;;;;;;5015605;28;20272;-58
2023/10/07 04:34:49;;;;;;;7.07;3.47;;;17.40;99.90;;;;;;5029751;28;20446;-58
2023/10/07 04:37:18;;;;;;;6.67;3.53;;;17.30;99.90;;;;;;5032801;28;20240;-58
2023/10/07 04:42:21;;;;;;;8.23;3.20;;;17.40;99.90;;;;;;5032738;28;20282;-58
2023/10/07 04:49:58;;;;;;;4.73;3.53;;;17.50;99.90;;;;;;5033980;28;20618;-57
2023/10/07 04:52:29;;;;;;;7.53;3.00;;;17.50;99.90;;;;;;5031237;28;20199;-56
2023/10/07 04:54:58;;;;;;;7.43;3.63;;;17.40;99.90;;;;;;5030559;28;20673;-57
2023/10/07 04:57:56;;;;;;;6.33;3.87;;;17.40;99.90;;;;;;5031433;28;20209;-56
2023/10/07 05:03:08;;;;;;;3.63;3.03;;;17.50;99.90;;;;;;5031216;28;20380;-57
2023/10/07 05:05:34;;;;;;;4.50;2.77;;;17.50;99.90;;;;;;5031364;28;20637;-57
2023/10/07 05:08:11;;;;;;;5.97;3.63;;;17.30;99.90;;;;;;5030007;28;20688;-58
2023/10/07 05:10:39;;;;;;;10.50;4.17;;;17.30;99.90;;;;;;5030986;28;20276;-67
2023/10/07 05:13:08;;;;;;;6.60;3.40;;;17.30;99.90;;;;;;5026566;28;20264;-56
2023/10/07 05:15:41;;;;;;;7.00;4.47;;;17.30;99.90;;;;;;5033283;28;20286;-65
2023/10/07 05:18:11;;;;;;;6.60;4.17;;;17.20;99.90;;;;;;5036921;28;20194;-67
2023/10/07 05:20:37;;;;;;;5.50;3.33;;;17.20;99.90;;;;;;5037379;28;20211;-66
2023/10/07 05:23:04;;;;;;;10.30;4.00;;;17.20;99.90;;;;;;5015403;28;20209;-60
2023/10/07 05:25:35;;;;;;;4.43;3.90;;;17.30;99.90;;;;;;5017384;28;20206;-56
2023/10/07 05:28:10;;;;;;;8.30;4.07;;;17.30;99.90;;;;;;5030055;28;20210;-57
2023/10/07 05:30:50;;;;;;;4.80;3.00;;;17.30;99.90;;;;;;5033266;28;20210;-57
2023/10/07 05:33:16;;;;;;;6.33;4.13;;;17.30;99.90;;;;;;5035617;28;20201;-58
2023/10/07 05:35:43;;;;;;;4.90;3.30;;;17.30;99.90;;;;;;5031707;28;20753;-60
2023/10/07 05:38:12;;;;;;;9.07;4.10;;;17.30;99.90;;;;;;5014505;28;20193;-56
2023/10/07 05:40:37;;;;;;;4.87;3.20;;;17.40;99.90;;;;;;5032592;28;20270;-60
2023/10/07 05:43:06;;;;;;;7.60;3.10;;;17.40;99.90;;;;;;5034610;28;20220;-66
2023/10/07 05:45:33;;;;;;;6.30;4.07;;;17.40;99.90;;;;;;5005816;28;20236;-59
2023/10/07 05:47:59;;;;;;;4.40;3.30;;;17.40;99.90;;;;;;5031403;28;20224;-58
2023/10/07 05:50:28;;;;;;;5.27;3.30;;;17.40;99.90;;;;;;5032115;28;20191;-59
2023/10/07 05:52:54;;;;;;;5.80;3.50;;;17.40;99.90;;;;;;5034954;28;20217;-61
2023/10/07 05:55:19;;;;;;;5.50;3.00;;;17.40;99.90;;;;;;5034218;28;20202;-58
2023/10/07 05:57:45;;;;;;;4.97;3.17;;;17.40;99.90;;;;;;5031388;28;20198;-58
2023/10/07 06:00:11;;;;;;;4.73;3.43;;;17.30;99.90;;;;;;5027804;28;20224;-58
2023/10/07 06:02:37;;;;;;;8.77;4.37;;;17.40;99.90;;;;;;5033119;28;20313;-58
2023/10/07 06:05:10;;;;;;;4.07;3.23;;;17.30;99.90;;;;;;5034395;28;20250;-60
2023/10/07 06:07:39;;;;;;;8.23;4.00;;;17.30;99.90;;;;;;5030295;28;20212;-56
2023/10/07 06:10:09;;;;;;;4.70;3.53;;;17.30;99.90;;;;;;5036433;28;20223;-59
2023/10/07 06:12:35;;;;;;;4.00;3.10;;;17.30;99.90;;;;;;5034973;28;20211;-57
2023/10/07 06:15:00;;;;;;;6.97;4.07;;;17.30;99.90;;;;;;5028016;28;20631;-58
2023/10/07 06:17:26;;;;;;;4.10;3.70;;;17.20;99.90;;;;;;5020669;28;20673;-68
2023/10/07 06:19:52;;;;;;;3.60;3.30;;;17.20;99.90;;;;;;5036747;28;20220;-58
2023/10/07 06:22:17;;;;;;;8.20;3.80;;;17.30;99.90;;;;;;5033427;28;20700;-58
2023/10/07 06:24:43;;;;;;;6.93;4.03;;;17.10;99.90;;;;;;5033055;28;20942;-58
2023/10/07 06:27:13;;;;;;;7.03;4.10;;;17.20;99.90;;;;;;5033878;28;20187;-57
2023/10/07 06:29:43;;;;;;;4.93;3.57;;;17.10;99.90;;;;;;5034999;28;20457;-58
2023/10/07 06:32:22;;;;;;;3.80;3.20;;;17.20;99.90;;;;;;5033590;28;20194;-58
2023/10/07 06:34:54;;;;;;;8.17;3.80;;;17.00;99.90;;;;;;5033047;28;21057;-61
2023/10/07 06:37:28;;;;;;;5.73;4.33;;;17.10;99.90;;;;;;5012467;28;20202;-56
2023/10/07 06:39:53;;;;;;;6.40;3.57;;;17.10;99.90;;;;;;5037393;28;20190;-55
2023/10/07 06:42:24;;;;;;;7.57;3.70;;;17.10;99.90;;;;;;5020445;28;20209;-59
2023/10/07 06:44:52;;;;;;;7.03;3.70;;;17.10;99.90;;;;;;5030097;28;20635;-64
2023/10/07 06:47:17;;;;;;;5.90;4.13;;;17.20;99.90;;;;;;5033951;28;20249;-65
2023/10/07 06:49:43;;;;;;;7.83;3.50;;;17.10;99.90;;;;;;5038917;28;20202;-59
2023/10/07 06:52:12;;;;;;;7.20;4.23;;;17.10;99.90;;;;;;5054525;28;20896;-58
2023/10/07 06:54:38;;;;;;;7.00;4.20;;;17.10;99.90;;;;;;5046348;28;20194;-58
2023/10/07 06:57:10;;;;;;;5.03;3.53;;;17.10;99.90;;;;;;5050084;28;20175;-60
2023/10/07 06:59:39;;;;;;;10.00;4.80;;;17.20;99.90;;;;;;5056290;28;20191;-57
2023/10/07 07:02:10;;;;;;;6.93;3.87;;;17.30;99.90;;;;;;5033138;28;20171;-58
2023/10/07 07:04:36;;;;;;;9.33;4.20;;;17.20;99.90;;;;;;5042174;28;20257;-58
2023/10/07 07:07:11;;;;;;;5.73;3.83;;;17.20;99.90;;;;;;5044627;28;20278;-57
2023/10/07 07:09:42;;;;;;;7.23;4.33;;;17.00;99.90;;;;;;5059251;28;20560;-57
2023/10/07 07:12:09;;;;;;;6.77;3.60;;;17.00;99.90;;;;;;5049875;28;20211;-58
2023/10/07 07:14:35;;;;;;;4.97;4.17;;;16.90;99.90;;;;;;5050500;28;20619;-57
2023/10/07 07:20:18;;;;;;;5.80;3.70;;;17.00;99.90;;;;;;5043859;28;20669;-55
2023/10/07 07:22:36;;;;;;;6.53;4.00;;;17.00;99.90;;;;;;5047548;28;20201;-56
2023/10/07 07:25:12;;;;;;;7.13;4.40;;;17.00;99.90;;;;;;5026567;28;20229;-55
2023/10/07 07:27:50;;;;;;;5.23;3.80;;;17.00;99.90;;;;;;5047434;28;20624;-65
2023/10/07 07:30:20;;;;;;;6.47;4.20;;;17.00;99.90;;;;;;5025084;28;20920;-60
2023/10/07 07:32:55;;;;;;;6.50;4.53;;;17.00;99.90;;;;;;5027671;28;20186;-62
2023/10/07 07:35:22;;;;;;;7.83;4.77;;;17.00;99.90;;;;;;5042546;28;20317;-61
2023/10/07 07:37:49;;;;;;;8.20;3.77;;;16.80;99.90;;;;;;5051380;28;20179;-63
2023/10/07 07:43:00;;;;;;;5.83;4.37;;;16.90;99.90;;;;;;5038661;28;20240;-58
2023/10/07 07:45:26;;;;;;;5.27;4.60;;;17.00;99.90;;;;;;5038969;28;20319;-60
2023/10/07 07:47:55;;;;;;;5.20;4.03;;;17.00;99.90;;;;;;5040914;28;20585;-59
2023/10/07 07:50:21;;;;;;;4.87;3.97;;;17.00;99.90;;;;;;5038854;28;20214;-55
2023/10/07 07:52:49;;;;;;;5.80;3.60;;;17.00;99.90;;;;;;5039507;28;20199;-56
2023/10/07 07:55:15;;;;;;;5.87;4.17;;;17.00;99.90;;;;;;5039597;28;20190;-56
2023/10/07 07:57:44;;;;;;;7.00;4.67;;;17.00;99.90;;;;;;5034496;28;20187;-55
2023/10/07 08:00:22;;;;;;;5.50;3.43;;;17.00;99.90;;;;;;5042618;28;20178;-68
2023/10/07 08:02:50;;;;;;;5.67;3.70;;;17.10;99.90;;;;;;5026410;28;20214;-58
2023/10/07 08:05:16;;;;;;;4.50;3.43;;;17.00;99.90;;;;;;5046381;28;20244;-58
2023/10/07 08:07:43;;;;;;;4.70;3.83;;;17.00;99.90;;;;;;5053024;28;20292;-58
2023/10/07 08:10:10;;;;;;;4.93;3.50;;;17.00;99.90;;;;;;5034284;28;20648;-58
2023/10/07 08:12:37;;;;;;;4.40;3.23;;;17.00;99.90;;;;;;5055731;28;20190;-58
2023/10/07 08:17:39;;;;;;;3.37;2.90;;;17.10;99.90;;;;;;5050293;28;20194;-58
2023/10/07 08:20:12;;;;;;;3.73;3.10;;;17.20;99.90;;;;;;5036045;28;20202;-58
2023/10/07 08:22:51;;;;;;;5.70;3.60;;;17.20;99.90;;;;;;5056391;28;20193;-65
2023/10/07 08:25:37;;;;;;;4.60;4.00;;;17.10;99.90;;;;;;5031054;28;20210;-64
2023/10/07 08:28:18;;;;;;;3.97;3.67;;;17.10;99.90;;;;;;5015962;28;20242;-56
2023/10/07 08:30:46;;;;;;;7.60;3.77;;;17.10;99.90;;;;;;5037126;28;20202;-60
2023/10/07 08:33:14;;;;;;;7.47;4.40;;;17.10;99.90;;;;;;5037661;28;20242;-56
2023/10/07 08:35:43;;;;;;;5.53;3.60;;;17.10;99.90;;;;;;5038319;28;20281;-57
2023/10/07 08:38:20;;;;;;;4.57;4.20;;;17.00;99.90;;;;;;5039291;28;20198;-57
2023/10/07 08:41:07;;;;;;;4.67;4.27;;;17.10;99.90;;;;;;5029812;28;20211;-57
2023/10/07 08:43:43;;;;;;;6.83;3.77;;;17.20;99.90;;;;;;5029304;28;20692;-57
2023/10/07 08:46:12;;;;;;;4.97;3.90;;;17.10;99.90;;;;;;5031209;28;20317;-57
2023/10/07 08:48:42;;;;;;;6.60;4.17;;;17.10;99.90;;;;;;5033643;28;20203;-57
2023/10/07 08:51:14;;;;;;;6.13;3.77;;;17.10;99.90;;;;;;5039813;28;20596;-65
2023/10/07 08:53:40;;;;;;;4.30;3.97;;;17.10;99.90;;;;;;5036071;28;20205;-65
2023/10/07 08:56:09;;;;;;;7.53;3.73;;;17.20;99.90;;;;;;5018864;28;20199;-57
2023/10/07 08:58:39;;;;;;;3.73;3.47;;;17.30;99.90;;;;;;5018813;28;20344;-58
2023/10/07 09:01:07;;;;;;;6.23;3.70;;;17.30;99.90;;;;;;5018309;28;20293;-58
2023/10/07 09:03:39;;;;;;;4.67;4.27;;;17.20;99.90;;;;;;5037674;28;20522;-57
2023/10/07 09:06:09;;;;;;;7.33;3.97;;;17.20;99.90;;;;;;5031039;28;20639;-58
2023/10/07 09:08:34;;;;;;;6.30;4.47;;;17.30;99.90;;;;;;5038704;28;20667;-61
2023/10/07 09:11:03;;;;;;;5.00;3.60;;;17.40;99.90;;;;;;5020967;28;20741;-61
2023/10/07 09:13:31;;;;;;;5.50;4.80;;;17.30;99.90;;;;;;5017836;28;20269;-63
2023/10/07 09:15:59;;;;;;;6.50;4.17;;;17.30;99.90;;;;;;5036646;28;20688;-56
2023/10/07 09:18:36;;;;;;;7.17;4.23;;;17.40;99.90;;;;;;5037939;28;20232;-57
2023/10/07 09:21:09;;;;;;;5.63;3.97;;;17.30;99.90;;;;;;5035882;28;20244;-58
2023/10/07 09:23:47;;;;;;;5.20;4.70;;;17.40;99.90;;;;;;5037950;28;20971;-57
2023/10/07 09:26:21;;;;;;;5.43;4.63;;;17.40;99.90;;;;;;5038667;28;20623;-57
2023/10/07 09:28:51;;;;;;;6.70;4.37;;;17.40;99.90;;;;;;5038485;28;20203;-58
2023/10/07 09:31:19;;;;;;;4.87;4.47;;;17.30;99.90;;;;;;5028159;28;20270;-61
2023/10/07 09:33:49;;;;;;;5.20;4.70;;;17.30;99.90;;;;;;5040184;28;20195;-60
2023/10/07 09:36:33;;;;;;;5.77;4.97;;;17.40;99.90;;;;;;5015854;28;20275;-65
2023/10/07 09:41:38;;;;;;;7.07;5.47;;;17.30;99.90;;;;;;5038120;28;20290;-59
2023/10/07 09:44:20;;;;;;;6.80;4.93;;;17.30;99.90;;;;;;5010420;28;20598;-58
2023/10/07 09:46:46;;;;;;;5.90;5.30;;;17.30;99.90;;;;;;5023167;28;20218;-58
2023/10/07 09:49:14;;;;;;;6.97;4.77;;;17.40;99.90;;;;;;5033071;28;20199;-61
2023/10/07 09:51:47;;;;;;;6.57;4.67;;;17.30;99.90;;;;;;5015446;28;20221;-62
2023/10/07 09:54:37;;;;;;;9.17;6.17;;;17.20;99.90;;;;;;5010052;28;20191;-65
2023/10/07 09:57:19;;;;;;;5.97;5.10;;;17.20;99.90;;;;;;5032378;28;20735;-57
2023/10/07 10:03:30;;;;;;;7.13;6.43;;;17.10;99.90;;;;;;5030205;28;20207;-60
2023/10/07 10:06:16;;;;;;;9.37;6.37;;;16.90;99.90;;;;;;5025699;28;20210;-56
2023/10/07 10:08:59;;;;;;;8.57;7.70;;;16.90;99.90;;;;;;5034183;28;20194;-57
2023/10/07 10:11:46;;;;;;;8.17;7.23;;;16.90;99.90;;;;;;5019442;28;20249;-56
2023/10/07 10:17:00;;;;;;;8.23;7.30;;;16.80;99.90;;;;;;5036845;28;20199;-58
2023/10/07 10:19:28;;;;;;;9.10;7.20;;;16.90;99.90;;;;;;5017813;28;20437;-58
2023/10/07 10:21:55;;;;;;;10.23;8.60;;;16.80;99.90;;;;;;5042258;28;20207;-58
2023/10/07 10:24:28;;;;;;;9.13;8.23;;;16.80;99.90;;;;;;5040385;28;20234;-58
2023/10/07 10:27:12;;;;;;;9.30;8.47;;;16.90;99.90;;;;;;5036620;28;20204;-58
2023/10/07 10:29:56;;;;;;;9.43;8.00;;;16.90;99.90;;;;;;5039228;28;20699;-57
2023/10/07 10:32:28;;;;;;;13.00;7.97;;;16.90;99.90;;;;;;5031749;28;20210;-69
2023/10/07 10:34:55;;;;;;;9.43;8.40;;;16.80;99.90;;;;;;5036543;28;20206;-66
2023/10/07 10:37:23;;;;;;;12.03;9.40;;;16.80;99.90;;;;;;5031843;28;21252;-71
2023/10/07 10:39:49;;;;;;;13.33;9.37;;;17.00;99.90;;;;;;5036081;28;20196;-65
2023/10/07 10:42:15;;;;;;;10.00;8.97;;;16.90;99.90;;;;;;5034336;28;20211;-62
2023/10/07 10:44:46;;;;;;;11.80;8.20;;;17.00;99.90;;;;;;5024420;28;20242;-61
2023/10/07 10:47:15;;;;;;;11.53;10.13;;;17.00;99.90;;;;;;5032005;28;20665;-59
2023/10/07 10:49:43;;;;;;;11.90;10.23;;;17.10;99.90;;;;;;5038713;28;20225;-58
2023/10/07 10:52:10;;;;;;;11.77;10.30;;;17.10;99.90;;;;;;5015279;28;20548;-55
2023/10/07 10:54:36;;;;;;;19.23;11.90;;;16.90;99.90;;;;;;5033615;28;20199;-56
2023/10/07 10:57:07;;;;;;;11.47;10.37;;;16.90;99.90;;;;;;5020595;28;20298;-56
2023/10/07 10:59:42;;;;;;;12.30;11.20;;;16.70;99.90;;;;;;5033882;28;20204;-55
2023/10/07 11:02:17;;;;;;;12.10;10.83;;;16.80;99.90;;;;;;5035161;28;20212;-58
2023/10/07 11:04:44;;;;;;;13.13;10.67;;;16.80;99.90;;;;;;5034827;28;20694;-58
2023/10/07 11:07:09;;;;;;;11.77;10.57;;;17.00;99.90;;;;;;5037233;28;20302;-58
2023/10/07 11:09:38;;;;;;;12.40;11.10;;;17.00;99.90;;;;;;5018516;28;20293;-58
2023/10/07 11:12:09;;;;;;;11.37;10.30;;;17.00;99.90;;;;;;5032617;28;21058;-58
2023/10/07 11:14:40;;;;;;;11.10;9.93;;;17.10;99.90;;;;;;5029572;28;20272;-58
2023/10/07 11:17:08;;;;;;;12.23;10.37;;;17.10;99.90;;;;;;5038336;28;20939;-58
2023/10/07 11:19:40;;;;;;;11.77;10.67;;;17.10;99.90;;;;;;5042083;28;20659;-64
2023/10/07 11:22:07;;;;;;;13.07;11.57;;;17.10;99.90;;;;;;5033112;28;20217;-58
2023/10/07 11:24:35;;;;;;;12.17;10.90;;;17.10;99.90;;;;;;5036373;28;20773;-58
2023/10/07 11:27:02;;;;;;;12.20;10.90;;;17.10;99.90;;;;;;5039700;28;20255;-65
2023/10/07 11:29:32;;;;;;;12.23;11.23;;;17.00;99.90;;;;;;5020315;28;21070;-58
2023/10/07 11:32:06;;;;;;;13.40;11.33;;;17.10;99.90;;;;;;5043410;28;20203;-63
2023/10/07 11:34:37;;;;;;;14.57;12.07;;;17.00;99.90;;;;;;5035786;28;20209;-58
2023/10/07 11:37:14;;;;;;;12.97;11.63;;;17.00;99.90;;;;;;5029352;28;20195;-58
2023/10/07 11:39:45;;;;;;;14.40;12.87;;;16.90;99.90;;;;;;5056306;23;20299;-58
2023/10/07 11:42:16;;;;;;;12.20;11.00;;;16.80;99.90;;;;;;5032872;28;20673;-58
2023/10/07 11:44:46;;;;;;;12.80;11.50;;;17.00;99.90;;;;;;5029666;28;20285;-58
2023/10/07 11:47:15;;;;;;;14.97;12.07;;;17.10;99.90;;;;;;5032504;28;20737;-59
2023/10/07 11:49:41;;;;;;;18.17;12.33;;;17.10;99.90;;;;;;5031793;28;20207;-59
2023/10/07 11:52:06;;;;;;;13.97;12.07;;;17.10;99.90;;;;;;5045987;28;20335;-59
2023/10/07 11:54:37;;;;;;;16.87;13.13;;;17.00;99.90;;;;;;5054975;28;20219;-58
2023/10/07 11:57:06;;;;;;;15.70;14.27;;;16.90;99.90;;;;;;5050260;28;20224;-58
2023/10/07 11:59:35;;;;;;;15.97;13.37;;;16.80;99.90;;;;;;5048634;28;20251;-58
2023/10/07 12:02:06;;;;;;;15.70;13.93;;;16.80;99.90;;;;;;5048158;28;20213;-58
2023/10/07 12:04:38;;;;;;;15.73;13.10;;;16.70;99.90;;;;;;5052738;28;20221;-58
2023/10/07 12:07:07;;;;;;;16.63;14.00;;;16.80;99.90;;;;;;5053837;28;20198;-57
2023/10/07 12:09:34;;;;;;;16.37;14.53;;;16.60;99.90;;;;;;5054473;28;20197;-58
2023/10/07 12:11:59;;;;;;;19.10;16.60;;;16.50;99.90;;;;;;5056192;28;20190;-58
2023/10/07 12:14:27;;;;;;;16.63;14.77;;;16.40;99.90;;;;;;5054256;28;20204;-58
2023/10/07 12:16:52;;;;;;;23.30;16.87;;;16.30;99.90;;;;;;5052137;28;20198;-58
2023/10/07 12:19:18;;;;;;;18.83;15.30;;;16.30;99.90;;;;;;5054069;28;20198;-58
2023/10/07 12:21:46;;;;;;;16.93;14.97;;;16.30;99.90;;;;;;5053877;28;20213;-58
2023/10/07 12:24:11;;;;;;;17.50;15.20;;;16.40;99.90;;;;;;5054197;28;20695;-59
2023/10/07 12:26:37;;;;;;;18.43;15.30;;;16.40;99.90;;;;;;5053635;28;20263;-58
2023/10/07 12:29:02;;;;;;;19.43;14.13;;;16.60;99.90;;;;;;5032003;28;20348;-58
2023/10/07 12:31:28;;;;;;;16.40;13.70;;;16.60;99.90;;;;;;5055259;28;20680;-58
2023/10/07 12:33:55;;;;;;;16.90;12.87;;;16.50;99.90;;;;;;5053302;28;20340;-58
2023/10/07 12:36:22;;;;;;;17.77;14.63;;;16.50;99.90;;;;;;5054747;28;20190;-58
2023/10/07 12:38:47;;;;;;;16.63;14.10;;;16.60;99.90;;;;;;5053367;28;20202;-59
2023/10/07 12:41:13;;;;;;;17.93;13.37;;;16.70;99.90;;;;;;5053049;28;20259;-57
2023/10/07 12:43:39;;;;;;;16.60;13.63;;;16.60;99.90;;;;;;5048268;28;20225;-59
2023/10/07 12:46:09;;;;;;;20.53;13.37;;;16.60;99.90;;;;;;5048683;28;20807;-58
2023/10/07 12:48:37;;;;;;;16.97;12.70;;;16.70;99.90;;;;;;5038136;28;20708;-58
2023/10/07 12:51:06;;;;;;;14.40;11.83;;;16.80;99.90;;;;;;5053886;28;20545;-58
2023/10/07 12:53:33;;;;;;;16.20;11.53;;;16.90;99.90;;;;;;5053136;28;20237;-59
2023/10/07 12:55:58;;;;;;;13.57;10.80;;;16.90;99.90;;;;;;5039261;28;20198;-58
2023/10/07 12:58:27;;;;;;;13.10;11.73;;;16.90;99.90;;;;;;5052571;28;20198;-58
2023/10/07 13:00:53;;;;;;;12.33;11.03;;;17.00;99.90;;;;;;5052655;28;20243;-58
2023/10/07 13:03:18;;;;;;;13.07;11.60;;;17.10;99.90;;;;;;5052765;28;20632;-58
2023/10/07 13:05:45;;;;;;;12.73;11.10;;;17.10;99.90;;;;;;5053097;28;20198;-59
2023/10/07 13:08:18;;;;;;;12.13;10.87;;;17.10;99.90;;;;;;5055441;28;20209;-58
2023/10/07 13:10:44;;;;;;;13.27;11.93;;;17.10;99.90;;;;;;5053814;28;20222;-58
2023/10/07 13:13:13;;;;;;;11.90;10.77;;;17.10;99.90;;;;;;5052861;28;20197;-58
2023/10/07 13:15:41;;;;;;;14.93;9.93;;;17.10;99.90;;;;;;5052694;28;20197;-56
2023/10/07 13:18:09;;;;;;;12.00;10.33;;;17.10;99.90;;;;;;5051884;28;20210;-58
2023/10/07 13:20:34;;;;;;;13.73;11.77;;;17.10;99.90;;;;;;5051436;28;20198;-58
2023/10/07 13:23:06;;;;;;;13.00;10.37;;;17.10;99.90;;;;;;5052218;28;20259;-59
2023/10/07 13:25:33;;;;;;;12.93;10.13;;;17.30;99.90;;;;;;5050838;28;20225;-61
2023/10/07 13:28:00;;;;;;;11.10;10.00;;;17.40;99.90;;;;;;5051984;28;20240;-59
2023/10/07 13:30:26;;;;;;;13.63;10.53;;;17.30;99.90;;;;;;5043033;28;20668;-57
2023/10/07 13:32:55;;;;;;;11.47;9.67;;;17.30;99.90;;;;;;5049369;28;20221;-58
2023/10/07 13:35:22;;;;;;;13.33;11.00;;;17.30;99.90;;;;;;5026007;28;20206;-57
2023/10/07 13:37:52;;;;;;;10.80;9.23;;;17.40;99.90;;;;;;5047297;28;20201;-56
2023/10/07 13:40:19;;;;;;;12.90;10.80;;;17.50;99.90;;;;;;5049602;28;20218;-60
2023/10/07 13:42:49;;;;;;;16.43;9.73;;;17.50;99.90;;;;;;5047932;28;20206;-56
2023/10/07 13:45:16;;;;;;;15.03;10.57;;;17.50;99.90;;;;;;5042861;28;20300;-58
2023/10/07 13:47:42;;;;;;;12.87;10.30;;;17.50;99.90;;;;;;5048023;28;20202;-56
2023/10/07 13:50:14;;;;;;;12.87;10.07;;;17.50;99.90;;;;;;5043282;28;20206;-56
2023/10/07 13:52:51;;;;;;;10.07;8.90;;;17.60;99.90;;;;;;5049974;28;20242;-56
2023/10/07 13:55:33;;;;;;;10.00;8.63;;;17.50;99.90;;;;;;5043255;28;20187;-59